Time;durP1;ratioP1;P1;durP2;ratioP2;P2;SDS_P1;SDS_P2;PMS_P1;PMS_P2;Temp;Humidity;BMP_temperature;BMP_pressure;BME280_temperature;BME280_humidity;BME280_pressure;Samples;Min_cycle;Max_cycle;Signal;HPM_P1;HPM_P2
2022/06/25 00:02:11;;;;;;;3.33;1.20;;;;;;;22.81;40.58;99832.75;5531411;32;33858;-67
2022/06/25 00:05:28;;;;;;;2.95;1.05;;;;;;;22.75;40.63;99825.69;5531433;32;34572;-67
2022/06/25 00:08:33;;;;;;;4.18;1.20;;;;;;;22.74;41.32;99826.75;5530489;32;32543;-67
2022/06/25 00:14:59;;;;;;;3.22;1.00;;;;;;;22.77;41.37;99815.41;5530706;32;34034;-67
2022/06/25 00:18:02;;;;;;;4.00;1.30;;;;;;;22.81;39.74;99819.22;5530471;32;33108;-67
2022/06/25 00:21:04;;;;;;;2.78;1.10;;;;;;;22.57;40.80;99831.47;5531272;32;34206;-67
2022/06/25 00:24:07;;;;;;;1.65;1.10;;;;;;;22.39;41.73;99833.50;5531350;32;34060;-67
2022/06/25 00:27:10;;;;;;;2.00;0.98;;;;;;;22.26;41.53;99835.84;5531365;32;33661;-67
2022/06/25 00:30:12;;;;;;;2.58;0.93;;;;;;;22.19;41.52;99832.50;5530763;32;35378;-67
2022/06/25 00:33:15;;;;;;;2.90;1.23;;;;;;;22.16;42.40;99841.97;5531212;32;35125;-67
2022/06/25 00:36:18;;;;;;;2.65;1.20;;;;;;;22.21;43.62;99842.00;5531160;32;33909;-67
2022/06/25 00:39:21;;;;;;;1.55;1.10;;;;;;;22.32;42.55;99837.47;5531158;32;34583;-67
2022/06/25 00:42:23;;;;;;;4.00;1.02;;;;;;;22.26;42.84;99841.25;5531470;32;34005;-67
2022/06/25 00:45:26;;;;;;;2.03;1.30;;;;;;;22.24;42.97;99840.66;5531078;32;34661;-67
2022/06/25 00:48:29;;;;;;;2.60;1.17;;;;;;;22.27;43.47;99832.06;5530477;32;34104;-67
2022/06/25 00:51:32;;;;;;;1.70;1.20;;;;;;;22.22;43.27;99830.09;5531003;32;34396;-67
2022/06/25 00:54:37;;;;;;;1.70;1.08;;;;;;;22.24;43.23;99833.37;5530870;32;33999;-67
2022/06/25 00:57:42;;;;;;;3.62;1.20;;;;;;;22.21;43.90;99841.19;5531055;32;34052;-67
2022/06/25 01:00:46;;;;;;;4.60;1.42;;;;;;;22.24;43.40;99843.38;5530935;32;34391;-67
2022/06/25 01:03:48;;;;;;;4.50;0.95;;;;;;;22.27;42.66;99850.97;5530881;32;34622;-67
2022/06/25 01:06:55;;;;;;;10.43;1.80;;;;;;;22.27;43.14;99865.28;5530985;32;34048;-67
2022/06/25 01:09:59;;;;;;;6.32;1.60;;;;;;;21.77;50.63;99851.25;5530888;32;33978;-68
2022/06/25 01:13:02;;;;;;;4.55;1.90;;;;;;;20.92;60.61;99867.94;5530580;32;33910;-70
2022/06/25 01:16:09;;;;;;;7.05;1.70;;;;;;;19.88;73.30;99865.66;5530782;32;34045;-70
2022/06/25 01:19:12;;;;;;;3.33;1.90;;;;;;;19.10;80.66;99863.50;5531103;32;34215;-70
2022/06/25 01:22:15;;;;;;;2.53;1.48;;;;;;;18.39;86.58;99852.12;5530755;32;34082;-69
2022/06/25 01:25:18;;;;;;;5.78;2.15;;;;;;;18.03;89.19;99850.38;5530859;32;34071;-69
2022/06/25 01:28:21;;;;;;;3.15;1.67;;;;;;;17.91;98.82;99866.44;5530734;32;34683;-69
2022/06/25 01:31:24;;;;;;;3.50;1.70;;;;;;;17.69;99.36;99862.63;5531043;32;34069;-69
2022/06/25 01:34:27;;;;;;;2.45;1.77;;;;;;;17.73;99.66;99864.63;5530139;32;33893;-69
2022/06/25 01:37:30;;;;;;;3.35;1.70;;;;;;;17.68;100.00;99855.63;5529815;32;33923;-69
2022/06/25 01:40:37;;;;;;;4.70;2.40;;;;;;;17.78;100.00;99861.25;5530491;32;34763;-69
2022/06/25 01:43:40;;;;;;;6.22;2.20;;;;;;;17.91;100.00;99868.34;5530405;32;34044;-68
2022/06/25 01:46:43;;;;;;;8.07;1.83;;;;;;;18.09;100.00;99870.97;5529684;32;34352;-68
2022/06/25 01:49:47;;;;;;;4.78;1.77;;;;;;;18.21;100.00;99877.97;5530142;32;34560;-69
2022/06/25 01:52:50;;;;;;;3.50;1.87;;;;;;;18.39;100.00;99876.28;5529631;32;33993;-68
2022/06/25 01:55:53;;;;;;;6.35;1.83;;;;;;;18.52;99.25;99871.53;5530481;32;34650;-68
2022/06/25 01:58:57;;;;;;;2.33;1.60;;;;;;;18.62;93.91;99882.53;5530302;32;35185;-68
2022/06/25 02:02:00;;;;;;;3.35;1.70;;;;;;;18.70;90.11;99878.69;5529255;32;105073;-68
2022/06/25 02:05:05;;;;;;;3.65;1.80;;;;;;;18.82;88.73;99865.25;5532205;32;33943;-67
2022/06/25 02:08:11;;;;;;;4.68;1.65;;;;;;;19.06;83.14;99862.34;5531859;32;33967;-67
2022/06/25 02:11:14;;;;;;;2.30;1.60;;;;;;;19.27;83.97;99860.88;5532197;32;33879;-67
2022/06/25 02:14:16;;;;;;;4.07;1.50;;;;;;;19.38;78.04;99857.34;5532556;32;34125;-67
2022/06/25 02:17:21;;;;;;;4.95;1.75;;;;;;;19.64;84.99;99863.28;5532706;32;34042;-67
2022/06/25 02:20:24;;;;;;;9.35;2.28;;;;;;;19.48;86.32;99868.34;5532457;32;34881;-67
2022/06/25 02:23:32;;;;;;;5.25;2.10;;;;;;;19.31;87.28;99870.13;5532020;32;33942;-67
2022/06/25 02:26:34;;;;;;;4.12;1.90;;;;;;;19.18;90.40;99864.16;5531696;32;33945;-67
2022/06/25 02:29:38;;;;;;;2.58;1.70;;;;;;;19.13;94.86;99864.87;5531562;32;33813;-67
2022/06/25 02:32:40;;;;;;;2.70;1.90;;;;;;;19.04;95.78;99863.59;5532350;32;33995;-67
2022/06/25 02:35:44;;;;;;;6.75;1.98;;;;;;;18.98;93.59;99868.06;5531806;32;34065;-67
2022/06/25 02:38:47;;;;;;;2.97;1.83;;;;;;;19.00;92.40;99865.97;5532593;32;34019;-67
2022/06/25 02:41:50;;;;;;;2.42;1.80;;;;;;;19.02;90.42;99876.47;5531629;32;34348;-67
2022/06/25 02:44:53;;;;;;;2.78;1.98;;;;;;;18.92;89.00;99863.63;5532603;32;33908;-67
2022/06/25 02:47:56;;;;;;;4.82;2.20;;;;;;;18.97;86.36;99855.69;5532182;32;34028;-67
2022/06/25 02:51:01;;;;;;;5.82;1.90;;;;;;;19.26;81.02;99842.31;5532025;32;34127;-67
2022/06/25 02:54:04;;;;;;;4.55;2.00;;;;;;;19.44;81.19;99845.69;5532129;32;34029;-67
2022/06/25 03:00:37;;;;;;;5.53;1.98;;;;;;;19.35;84.54;99855.16;5532084;32;34095;-67
2022/06/25 03:03:40;;;;;;;2.30;1.60;;;;;;;19.20;84.00;99864.75;5532317;32;34696;-67
2022/06/25 03:06:43;;;;;;;2.67;1.77;;;;;;;19.14;84.82;99869.22;5532239;32;33984;-67
2022/06/25 03:09:45;;;;;;;3.08;1.90;;;;;;;19.14;86.06;99877.28;5532170;32;34528;-67
2022/06/25 03:12:49;;;;;;;3.08;1.80;;;;;;;19.15;87.08;99873.53;5531768;32;33880;-67
2022/06/25 03:15:52;;;;;;;6.12;1.80;;;;;;;19.29;88.26;99879.47;5531324;32;33108;-67
2022/06/25 03:18:55;;;;;;;2.65;1.60;;;;;;;19.40;82.82;99879.47;5531991;32;33945;-67
2022/06/25 03:22:01;;;;;;;3.92;1.90;;;;;;;19.63;81.62;99881.31;5530804;32;32547;-67
2022/06/25 03:25:05;;;;;;;3.40;2.12;;;;;;;19.70;81.81;99887.37;5532259;32;34716;-67
2022/06/25 03:28:09;;;;;;;2.35;1.85;;;;;;;19.67;79.67;99879.75;5531945;32;34685;-67
2022/06/25 03:31:12;;;;;;;4.18;1.50;;;;;;;19.64;82.10;99876.75;5531907;32;35247;-67
2022/06/25 03:34:15;;;;;;;3.65;1.40;;;;;;;19.58;79.97;99873.13;5531790;32;34618;-67
2022/06/25 03:37:19;;;;;;;1.90;1.50;;;;;;;19.82;76.45;99879.25;5531803;32;33955;-67
2022/06/25 03:40:22;;;;;;;3.08;1.48;;;;;;;19.89;74.46;99879.94;5531812;32;34631;-67
2022/06/25 03:43:30;;;;;;;2.20;1.60;;;;;;;19.92;74.27;99879.44;5532092;32;34546;-67
2022/06/25 03:46:37;;;;;;;6.55;1.87;;;;;;;19.95;75.22;99868.19;5531832;32;33929;-67
2022/06/25 03:49:43;;;;;;;1.83;1.52;;;;;;;20.06;75.43;99879.97;5531011;32;34275;-67
2022/06/25 03:52:47;;;;;;;7.00;1.62;;;;;;;20.09;72.62;99879.50;5531838;32;34668;-67
2022/06/25 03:55:49;;;;;;;3.87;1.80;;;;;;;20.09;72.06;99890.28;5531876;32;34181;-67
2022/06/25 03:58:56;;;;;;;6.40;1.70;;;;;;;20.27;70.42;99890.06;5531901;32;33892;-67
2022/06/25 04:01:59;;;;;;;6.20;1.70;;;;;;;20.46;69.80;99894.19;5531443;32;34045;-67
2022/06/25 04:05:04;;;;;;;2.15;1.40;;;;;;;20.61;70.59;99888.22;5531568;32;34342;-67
2022/06/25 04:08:10;;;;;;;2.10;1.40;;;;;;;20.74;67.76;99893.28;5531651;32;35148;-67
2022/06/25 04:11:14;;;;;;;3.97;1.85;;;;;;;20.74;68.18;99888.72;5531908;32;34103;-67
2022/06/25 04:14:17;;;;;;;2.90;1.80;;;;;;;20.78;70.14;99902.50;5531550;32;34604;-67
2022/06/25 04:17:20;;;;;;;4.07;1.55;;;;;;;20.81;71.36;99905.56;5530592;32;32334;-66
2022/06/25 04:20:23;;;;;;;4.72;1.58;;;;;;;20.53;69.55;99911.00;5531414;32;34674;-66
2022/06/25 04:23:29;;;;;;;2.20;1.35;;;;;;;20.46;70.76;99909.53;5529941;32;34242;-67
2022/06/25 04:26:31;;;;;;;4.72;1.62;;;;;;;20.27;69.71;99907.03;5530051;32;33319;-67
2022/06/25 04:29:36;;;;;;;2.95;1.60;;;;;;;20.39;69.46;99902.41;5530850;32;33879;-67
2022/06/25 04:32:43;;;;;;;4.40;1.65;;;;;;;20.45;70.20;99908.72;5517974;32;33808;-67
2022/06/25 04:35:47;;;;;;;2.60;1.60;;;;;;;20.46;70.24;99912.22;5517763;32;33906;-67
2022/06/25 04:38:56;;;;;;;4.40;1.70;;;;;;;20.52;72.03;99908.56;5531527;32;34070;-67
2022/06/25 04:42:02;;;;;;;1.98;1.48;;;;;;;20.57;69.57;99908.66;5531551;32;34623;-67
2022/06/25 04:45:07;;;;;;;3.75;1.60;;;;;;;20.71;71.20;99913.47;5530517;32;34012;-67
2022/06/25 04:48:13;;;;;;;3.10;1.65;;;;;;;20.81;67.30;99921.72;5531394;32;33983;-66
2022/06/25 04:51:18;;;;;;;9.48;1.70;;;;;;;20.93;66.99;99918.94;5531246;32;34598;-66
2022/06/25 04:54:22;;;;;;;4.55;1.62;;;;;;;21.03;65.93;99927.16;5530941;32;34054;-66
2022/06/25 04:57:26;;;;;;;2.62;1.85;;;;;;;20.86;63.97;99925.56;5531204;32;34606;-66
2022/06/25 05:00:32;;;;;;;2.03;1.45;;;;;;;20.96;63.48;99928.41;5531329;32;34184;-67
2022/06/25 05:03:42;;;;;;;3.55;1.60;;;;;;;20.97;62.78;99936.25;5530953;32;34618;-67
2022/06/25 05:06:46;;;;;;;2.53;1.37;;;;;;;21.11;63.20;99937.53;5531213;32;34598;-67
2022/06/25 05:09:49;;;;;;;6.53;2.40;;;;;;;21.13;64.17;99938.16;5530930;32;34332;-67
2022/06/25 05:13:14;;;;;;;2.42;1.60;;;;;;;20.96;63.85;99940.00;5530100;32;35230;-67
2022/06/25 05:16:17;;;;;;;2.28;1.62;;;;;;;21.21;64.77;99931.50;5530781;32;34343;-67
2022/06/25 05:19:21;;;;;;;2.33;1.52;;;;;;;21.05;65.18;99933.16;5530750;32;33912;-67
2022/06/25 05:22:27;;;;;;;3.12;1.42;;;;;;;20.93;63.44;99935.09;5531026;32;33918;-66
2022/06/25 05:25:30;;;;;;;2.45;1.62;;;;;;;21.10;63.07;99935.09;5530721;32;34159;-66
2022/06/25 05:28:33;;;;;;;3.55;1.50;;;;;;;21.25;61.53;99938.06;5530588;32;34069;-68
2022/06/25 05:31:37;;;;;;;2.80;1.35;;;;;;;21.33;60.38;99939.50;5530855;32;34033;-66
2022/06/25 05:34:40;;;;;;;2.62;1.52;;;;;;;21.52;60.46;99940.84;5530001;32;34032;-67
2022/06/25 05:37:46;;;;;;;4.43;1.67;;;;;;;21.78;58.25;99944.69;5530303;32;33938;-66
2022/06/25 05:40:48;;;;;;;2.83;1.42;;;;;;;21.83;57.27;99945.59;5530330;32;34068;-67
2022/06/25 05:43:53;;;;;;;4.22;1.58;;;;;;;21.93;54.05;99942.19;5530305;32;33916;-67
2022/06/25 05:46:56;;;;;;;1.50;1.30;;;;;;;21.98;55.57;99942.25;5530320;32;33998;-66
2022/06/25 05:50:08;;;;;;;2.58;1.60;;;;;;;22.05;53.92;99949.09;5528948;32;32449;-66
2022/06/25 05:53:11;;;;;;;2.20;1.58;;;;;;;22.24;54.68;99952.28;5530137;32;33986;-67
2022/06/25 05:56:14;;;;;;;3.58;1.45;;;;;;;22.26;53.76;99955.56;5529818;32;34172;-67
2022/06/25 05:59:18;;;;;;;4.00;1.52;;;;;;;22.31;55.13;99952.09;5530064;32;34381;-67
2022/06/25 06:02:21;;;;;;;3.65;1.50;;;;;;;22.41;53.40;99947.56;5528797;32;33018;-67
2022/06/25 06:05:24;;;;;;;1.92;1.35;;;;;;;22.49;53.87;99949.00;5529928;32;33922;-66
2022/06/25 06:08:28;;;;;;;3.08;1.60;;;;;;;22.83;52.57;99952.31;5529931;32;33965;-68
2022/06/25 06:11:40;;;;;;;3.08;1.40;;;;;;;22.90;50.09;99955.59;5529683;32;33943;-67
2022/06/25 06:14:43;;;;;;;2.30;1.60;;;;;;;23.18;50.59;99958.00;5529288;32;34317;-66
2022/06/25 06:17:53;;;;;;;3.05;1.40;;;;;;;23.40;48.99;99966.78;5529730;32;33890;-66
2022/06/25 06:20:55;;;;;;;2.20;1.75;;;;;;;23.34;49.59;99967.00;5516102;32;34701;-66
2022/06/25 06:23:58;;;;;;;4.18;1.55;;;;;;;23.25;49.34;99961.28;5528662;32;34209;-66
2022/06/25 06:27:01;;;;;;;3.85;1.70;;;;;;;23.24;48.69;99956.94;5529629;32;34945;-66
2022/06/25 06:30:05;;;;;;;3.15;1.80;;;;;;;23.21;48.15;99956.66;5529465;32;34002;-66
2022/06/25 06:33:09;;;;;;;3.08;1.75;;;;;;;23.12;49.11;99958.22;5529386;32;34724;-67
2022/06/25 06:36:13;;;;;;;3.12;1.70;;;;;;;23.24;48.12;99956.94;5529570;32;33571;-68
2022/06/25 06:39:17;;;;;;;5.45;1.77;;;;;;;23.23;48.59;99957.22;5528448;32;33869;-68
2022/06/25 06:42:24;;;;;;;5.03;1.77;;;;;;;23.50;48.82;99959.84;5529519;32;34202;-66
2022/06/25 06:45:26;;;;;;;3.80;1.70;;;;;;;23.60;47.88;99955.28;5528503;32;34559;-66
2022/06/25 06:48:29;;;;;;;5.60;1.92;;;;;;;23.65;47.02;99952.63;5531833;32;33991;-67
2022/06/25 06:51:34;;;;;;;1.98;1.50;;;;;;;23.61;47.85;99953.41;5531895;32;33969;-66
2022/06/25 06:54:37;;;;;;;3.95;1.80;;;;;;;23.53;47.82;99970.94;5531422;32;32527;-67
2022/06/25 06:57:40;;;;;;;2.30;1.40;;;;;;;23.94;48.17;99963.03;5531236;32;34068;-67
2022/06/25 07:00:51;;;;;;;3.08;1.70;;;;;;;24.01;47.57;99963.59;5531822;32;35238;-66
2022/06/25 07:03:55;;;;;;;3.05;1.65;;;;;;;24.18;47.02;99972.34;5531723;32;33948;-67
2022/06/25 07:07:01;;;;;;;2.40;1.60;;;;;;;24.34;45.78;99970.50;5531952;32;34561;-67
2022/06/25 07:10:04;;;;;;;3.15;1.70;;;;;;;24.36;45.52;99965.59;5531874;32;34748;-66
2022/06/25 07:13:08;;;;;;;3.90;1.55;;;;;;;24.58;45.04;99968.91;5531821;32;34086;-66
2022/06/25 07:16:10;;;;;;;3.55;1.62;;;;;;;24.84;44.20;99984.09;5531621;32;35197;-67
2022/06/25 07:19:13;;;;;;;2.53;1.60;;;;;;;24.75;44.41;99979.50;5531468;32;34699;-67
2022/06/25 07:22:16;;;;;;;1.85;1.50;;;;;;;24.89;44.82;99981.44;5531515;32;34002;-67
2022/06/25 07:25:19;;;;;;;2.90;1.75;;;;;;;24.80;43.85;99990.34;5531642;32;34272;-67
2022/06/25 07:28:22;;;;;;;5.60;1.67;;;;;;;25.08;43.34;99981.69;5531518;32;34217;-67
2022/06/25 07:31:28;;;;;;;3.97;1.70;;;;;;;25.32;43.44;99990.91;5531419;32;34376;-67
2022/06/25 07:34:31;;;;;;;2.85;1.55;;;;;;;25.23;42.93;99989.81;5531911;32;33885;-67
2022/06/25 07:37:34;;;;;;;6.03;1.42;;;;;;;25.67;42.61;99990.03;5531528;32;34201;-67
2022/06/25 07:40:40;;;;;;;6.05;1.70;;;;;;;25.94;42.02;99989.69;5531289;32;34116;-68
2022/06/25 07:43:42;;;;;;;3.42;1.62;;;;;;;26.21;40.82;99981.97;5530590;32;34659;-69
2022/06/25 07:46:45;;;;;;;3.97;1.65;;;;;;;26.61;40.25;99980.91;5531348;32;33958;-68
2022/06/25 07:53:12;;;;;;;3.45;1.80;;;;;;;27.10;39.62;99980.81;5531386;32;34725;-69
2022/06/25 07:56:16;;;;;;;7.22;1.83;;;;;;;28.14;37.58;99975.59;5531326;32;34001;-67
2022/06/25 07:59:20;;;;;;;2.65;1.52;;;;;;;27.98;38.19;99985.09;5517763;32;34074;-68
2022/06/25 08:02:23;;;;;;;4.70;1.70;;;;;;;28.26;37.46;99988.81;5530874;32;34718;-68
2022/06/25 08:05:27;;;;;;;3.33;1.95;;;;;;;28.55;36.90;99999.59;5531435;32;34141;-68
2022/06/25 08:08:32;;;;;;;3.22;1.87;;;;;;;28.85;36.72;100010.09;5531061;32;33965;-68
2022/06/25 08:11:36;;;;;;;3.62;1.75;;;;;;;28.84;36.51;100014.75;5531047;32;34055;-68
2022/06/25 08:14:39;;;;;;;2.40;1.50;;;;;;;29.73;35.27;100014.56;5531096;32;34003;-68
2022/06/25 08:17:42;;;;;;;3.00;1.85;;;;;;;29.51;36.23;100017.19;5530945;32;33979;-68
2022/06/25 08:20:45;;;;;;;4.80;1.83;;;;;;;29.59;36.37;100016.47;5530927;32;33938;-68
2022/06/25 08:23:48;;;;;;;4.90;1.70;;;;;;;29.48;36.87;100021.34;5531143;32;34741;-68
2022/06/25 08:26:51;;;;;;;3.55;2.00;;;;;;;29.60;37.09;100018.91;5530271;32;33714;-68
2022/06/25 08:29:56;;;;;;;4.82;2.10;;;;;;;29.60;37.78;100013.44;5517655;32;34181;-69
2022/06/25 08:32:59;;;;;;;6.72;2.53;;;;;;;29.88;38.32;100021.66;5529894;32;34599;-67
2022/06/25 08:36:03;;;;;;;5.03;2.12;;;;;;;30.25;39.02;100020.66;5530825;32;33989;-69
2022/06/25 08:39:05;;;;;;;5.87;2.20;;;;;;;29.69;40.72;100030.75;5530711;32;33964;-68
2022/06/25 08:42:08;;;;;;;4.07;2.15;;;;;;;29.56;41.60;100028.00;5530923;32;34537;-67
2022/06/25 08:45:12;;;;;;;7.32;2.12;;;;;;;31.02;38.84;100024.13;5530915;32;34721;-67
2022/06/25 08:48:22;;;;;;;6.37;2.22;;;;;;;31.78;37.49;100033.91;5530828;32;33982;-68
2022/06/25 08:51:28;;;;;;;5.15;2.10;;;;;;;33.45;34.47;100022.47;5530631;32;34595;-68
2022/06/25 08:54:33;;;;;;;3.30;1.73;;;;;;;32.33;36.82;100039.78;5529315;32;33751;-68
2022/06/25 08:57:38;;;;;;;3.87;1.98;;;;;;;32.47;37.10;100042.38;5530256;32;33937;-69
2022/06/25 09:00:43;;;;;;;8.25;1.80;;;;;;;31.06;39.88;100038.81;5530429;32;34540;-68
2022/06/25 09:03:48;;;;;;;2.83;1.60;;;;;;;31.31;39.89;100031.88;5530678;32;34143;-68
2022/06/25 09:06:51;;;;;;;2.70;1.62;;;;;;;29.06;45.58;100030.47;5529941;32;33984;-68
2022/06/25 09:09:57;;;;;;;2.30;1.60;;;;;;;27.61;50.27;100029.38;5529868;32;34520;-68
2022/06/25 09:13:08;;;;;;;3.90;1.85;;;;;;;26.83;52.87;100038.44;5529595;32;34296;-67
2022/06/25 09:16:23;;;;;;;5.03;1.60;;;;;;;28.30;50.00;100037.06;5529369;32;32812;-68
2022/06/25 09:19:32;;;;;;;3.78;1.87;;;;;;;30.22;44.09;100043.94;5530546;32;34618;-70
2022/06/25 09:22:35;;;;;;;5.90;2.00;;;;;;;30.18;44.20;100034.75;5530647;32;34025;-68
2022/06/25 09:25:41;;;;;;;4.68;1.83;;;;;;;30.57;42.76;100025.97;5530451;32;34607;-68
2022/06/25 09:28:46;;;;;;;3.67;1.80;;;;;;;31.62;40.83;100040.13;5530441;32;34252;-69
2022/06/25 09:31:50;;;;;;;2.87;1.73;;;;;;;33.15;37.46;100046.28;5529957;32;34175;-70
2022/06/25 09:34:53;;;;;;;3.20;1.60;;;;;;;32.82;37.97;100042.44;5530231;32;34865;-68
2022/06/25 09:38:01;;;;;;;6.00;1.90;;;;;;;32.33;38.23;100034.28;5529620;32;33879;-67
2022/06/25 09:41:04;;;;;;;3.92;1.95;;;;;;;33.48;36.50;100030.84;5529887;32;33854;-68
2022/06/25 09:44:19;;;;;;;4.00;1.60;;;;;;;31.50;39.60;100032.47;5529709;32;33336;-67
2022/06/25 09:47:25;;;;;;;3.50;1.75;;;;;;;32.50;38.52;100036.22;5530273;32;35276;-69
2022/06/25 09:50:28;;;;;;;6.05;1.70;;;;;;;32.35;38.16;100033.94;5529388;32;34693;-68
2022/06/25 09:53:32;;;;;;;2.92;1.58;;;;;;;32.35;38.92;100034.75;5529456;32;34324;-68
2022/06/25 09:56:35;;;;;;;4.62;1.83;;;;;;;33.55;36.49;100039.41;5530045;32;34004;-69
2022/06/25 09:59:41;;;;;;;6.28;1.50;;;;;;;32.42;37.58;100037.03;5529335;32;33925;-68
2022/06/25 10:02:47;;;;;;;4.20;1.80;;;;;;;33.47;36.81;100033.94;5529864;32;35314;-68
2022/06/25 10:05:53;;;;;;;5.75;1.70;;;;;;;34.15;35.05;100030.09;5529798;32;34204;-68
2022/06/25 10:09:02;;;;;;;2.85;1.50;;;;;;;33.90;35.28;100033.78;5529821;32;34072;-68
2022/06/25 10:12:06;;;;;;;4.65;1.75;;;;;;;33.31;36.47;100039.12;5529590;32;34027;-69
2022/06/25 10:15:09;;;;;;;4.55;1.60;;;;;;;32.51;38.10;100026.87;5529055;32;33333;-67
2022/06/25 10:18:15;;;;;;;4.18;1.67;;;;;;;33.57;35.94;100025.31;5528670;32;32810;-70
2022/06/25 10:21:22;;;;;;;2.28;1.42;;;;;;;33.69;36.04;100021.91;5531097;32;34692;-67
2022/06/25 10:24:25;;;;;;;2.62;1.40;;;;;;;34.72;34.40;100010.28;5532065;32;34000;-69
2022/06/25 10:27:46;;;;;;;3.05;1.50;;;;;;;33.96;35.31;100022.25;5532321;32;33897;-69
2022/06/25 10:30:52;;;;;;;2.45;1.40;;;;;;;31.73;39.49;100003.88;5518876;32;33952;-70
2022/06/25 10:34:00;;;;;;;2.53;1.37;;;;;;;33.31;37.09;100002.63;5531216;32;33353;-68
2022/06/25 10:37:03;;;;;;;4.28;1.48;;;;;;;34.77;33.88;100010.88;5532229;32;33855;-67
2022/06/25 10:40:08;;;;;;;2.47;1.30;;;;;;;35.38;32.74;100004.81;5532232;32;33974;-68
2022/06/25 10:43:50;;;;;;;5.32;1.75;;;;;;;33.63;35.31;99994.56;5532103;32;34057;-68
2022/06/25 10:47:08;;;;;;;2.58;1.35;;;;;;;34.30;34.15;99996.50;5532072;32;34606;-69
2022/06/25 10:50:22;;;;;;;3.97;1.42;;;;;;;33.67;35.77;99999.38;5531800;32;33928;-67
2022/06/25 10:53:26;;;;;;;3.83;1.55;;;;;;;35.06;33.01;99992.63;5532030;32;33946;-67
2022/06/25 10:56:43;;;;;;;5.87;1.20;;;;;;;35.06;32.72;99982.41;5532000;32;33675;-69
2022/06/25 10:59:46;;;;;;;1.12;0.90;;;;;;;34.94;32.66;99979.63;5532016;32;33983;-68
2022/06/25 11:02:53;;;;;;;4.18;1.40;;;;;;;34.94;32.87;99989.84;5531742;32;34084;-68
2022/06/25 11:06:16;;;;;;;2.58;1.50;;;;;;;33.37;35.36;99993.84;5531958;32;34121;-69
2022/06/25 11:09:19;;;;;;;3.17;1.10;;;;;;;34.07;33.80;99991.59;5531327;32;33107;-71
2022/06/25 11:12:23;;;;;;;5.37;1.35;;;;;;;33.54;34.70;99987.47;5532015;32;33982;-69
2022/06/25 11:15:42;;;;;;;5.80;1.50;;;;;;;34.00;33.83;99984.69;5531465;32;33605;-69
2022/06/25 11:19:10;;;;;;;4.78;1.20;;;;;;;33.95;33.56;99987.63;5531815;32;33930;-69
2022/06/25 11:22:13;;;;;;;3.55;1.30;;;;;;;33.58;34.76;99988.44;5531855;32;34312;-67
2022/06/25 11:28:48;;;;;;;5.72;1.52;;;;;;;34.08;33.73;99987.72;5531458;32;35188;-71
2022/06/25 11:31:53;;;;;;;3.50;1.40;;;;;;;33.85;33.70;99993.50;5531506;32;34235;-68
2022/06/25 11:35:01;;;;;;;2.47;1.25;;;;;;;33.45;34.31;100000.47;5531793;32;34551;-68
2022/06/25 11:38:16;;;;;;;1.85;1.00;;;;;;;33.85;33.39;99993.50;5531558;32;34270;-69
2022/06/25 11:41:30;;;;;;;2.30;1.05;;;;;;;33.69;33.46;99997.97;5531402;32;34575;-68
2022/06/25 11:44:44;;;;;;;;;;;;;;;34.67;31.87;99992.00;5531983;32;34441;-68
2022/06/25 11:47:47;;;;;;;3.58;1.20;;;;;;;35.82;30.35;99997.62;5530982;32;34234;-68
2022/06/25 11:50:56;;;;;;;2.05;1.20;;;;;;;35.99;29.93;99997.38;5530756;32;34369;-68
2022/06/25 11:54:08;;;;;;;1.85;1.00;;;;;;;35.63;30.48;99984.38;5519317;32;36270;-69
2022/06/25 11:57:35;;;;;;;10.15;1.40;;;;;;;33.69;33.29;99981.47;5530972;32;33896;-68
2022/06/25 12:00:45;;;;;;;2.85;1.20;;;;;;;35.07;30.98;99983.19;5530067;32;33198;-69
2022/06/25 12:03:48;;;;;;;2.62;1.00;;;;;;;34.43;31.62;99978.87;5531418;32;34630;-70
2022/06/25 12:06:51;;;;;;;3.50;1.10;;;;;;;35.78;29.52;99974.62;5531804;32;34077;-68
2022/06/25 12:09:59;;;;;;;2.47;1.30;;;;;;;34.89;30.50;99966.03;5530627;32;34419;-69
2022/06/25 12:13:13;;;;;;;1.27;0.95;;;;;;;35.40;30.07;99966.62;5531663;32;33884;-69
2022/06/25 12:16:19;;;;;;;2.30;1.00;;;;;;;35.95;29.32;99960.56;5531429;32;33492;-68
2022/06/25 12:19:46;;;;;;;2.45;1.10;;;;;;;34.67;31.14;99969.97;5531324;32;35203;-70
2022/06/25 12:22:52;;;;;;;2.45;0.93;;;;;;;35.39;30.10;99952.03;5530318;32;32306;-69
2022/06/25 12:25:56;;;;;;;3.28;0.90;;;;;;;36.04;28.94;99952.97;5531423;32;33989;-69
2022/06/25 12:29:09;;;;;;;2.08;0.88;;;;;;;35.92;29.38;99947.47;5531383;32;33833;-70
2022/06/25 12:32:12;;;;;;;2.70;0.90;;;;;;;35.87;28.98;99936.66;5531192;32;33893;-70
2022/06/25 12:35:21;;;;;;;3.47;1.30;;;;;;;35.37;29.67;99928.72;5530508;32;34520;-69
2022/06/25 12:38:24;;;;;;;1.40;0.73;;;;;;;35.27;29.92;99933.53;5531308;32;34315;-69
2022/06/25 12:41:46;;;;;;;2.28;0.60;;;;;;;36.20;28.75;99931.00;5531538;32;34585;-69
2022/06/25 12:44:52;;;;;;;3.05;0.77;;;;;;;36.47;28.15;99924.66;5529194;32;34374;-70
2022/06/25 12:47:55;;;;;;;1.65;0.70;;;;;;;36.73;27.43;99936.12;5531364;32;35146;-70
2022/06/25 12:51:10;;;;;;;1.67;0.80;;;;;;;36.51;27.66;99925.56;5531174;32;34213;-69
2022/06/25 12:54:13;;;;;;;0.75;0.50;;;;;;;36.86;27.43;99934.06;5531170;32;33924;-69
2022/06/25 12:57:19;;;;;;;2.40;0.80;;;;;;;38.45;25.63;99923.31;5530625;32;32326;-71
2022/06/25 13:00:25;;;;;;;3.20;0.62;;;;;;;38.43;25.48;99934.75;5530908;32;33898;-66
2022/06/25 13:03:28;;;;;;;3.92;0.70;;;;;;;36.96;27.23;99937.12;5531041;32;33996;-67
2022/06/25 13:06:33;;;;;;;1.02;0.68;;;;;;;36.59;27.72;99930.97;5531200;32;35202;-67
2022/06/25 13:09:36;;;;;;;1.98;0.70;;;;;;;38.52;25.53;99932.59;5530607;32;34145;-68
2022/06/25 13:12:40;;;;;;;2.55;0.68;;;;;;;37.07;26.53;99925.53;5529819;32;32879;-70
2022/06/25 13:15:46;;;;;;;1.65;0.80;;;;;;;36.69;27.49;99918.63;5530843;32;34949;-69
2022/06/25 13:18:52;;;;;;;1.35;0.60;;;;;;;36.08;28.07;99923.50;5530352;32;33943;-69
2022/06/25 13:22:00;;;;;;;3.72;0.88;;;;;;;37.09;27.03;99932.34;5530808;32;34012;-70
2022/06/25 13:25:05;;;;;;;1.33;0.70;;;;;;;37.77;26.01;99927.34;5530322;32;33940;-69
2022/06/25 13:28:13;;;;;;;2.28;0.70;;;;;;;37.62;26.30;99925.41;5530673;32;34745;-70
2022/06/25 13:31:17;;;;;;;1.33;0.60;;;;;;;39.33;24.42;99927.78;5530451;32;34654;-69
2022/06/25 13:34:22;;;;;;;1.40;0.70;;;;;;;37.74;25.97;99921.72;5530483;32;34509;-68
2022/06/25 13:37:25;;;;;;;1.30;0.80;;;;;;;39.17;24.16;99923.53;5530441;32;34362;-68
2022/06/25 13:40:32;;;;;;;1.42;0.60;;;;;;;37.06;26.65;99921.16;5530533;32;34621;-67
2022/06/25 13:43:35;;;;;;;2.10;0.70;;;;;;;39.10;24.65;99921.41;5530246;32;34065;-68
2022/06/25 13:46:38;;;;;;;1.55;0.60;;;;;;;38.76;24.33;99916.78;5517135;32;34690;-66
2022/06/25 13:49:41;;;;;;;1.12;0.55;;;;;;;40.83;22.50;99922.31;5530648;32;34077;-70
2022/06/25 13:52:44;;;;;;;0.68;0.50;;;;;;;39.09;23.82;99917.84;5529578;32;34002;-67
2022/06/25 13:55:46;;;;;;;1.52;0.65;;;;;;;41.76;21.05;99924.75;5531048;32;34032;-68
2022/06/25 13:58:49;;;;;;;2.17;0.60;;;;;;;41.69;20.74;99911.56;5531739;32;34612;-69
2022/06/25 14:01:53;;;;;;;2.28;0.68;;;;;;;42.69;19.60;99910.09;5532532;32;33944;-68
2022/06/25 14:04:56;;;;;;;1.87;0.50;;;;;;;41.26;21.68;99909.63;5532831;32;34101;-68
2022/06/25 14:07:59;;;;;;;0.52;0.40;;;;;;;38.61;24.16;99907.41;5531685;32;32664;-69
2022/06/25 14:11:02;;;;;;;2.97;0.60;;;;;;;37.64;25.93;99908.44;5532535;32;33944;-69
2022/06/25 14:14:06;;;;;;;0.50;0.45;;;;;;;38.62;25.07;99925.66;5532110;32;34249;-67
2022/06/25 14:17:10;;;;;;;2.70;0.60;;;;;;;39.56;23.38;99924.97;5532229;32;33902;-68
2022/06/25 14:20:13;;;;;;;0.60;0.40;;;;;;;40.60;21.61;99926.03;5532420;32;34603;-68
2022/06/25 14:23:16;;;;;;;2.80;0.52;;;;;;;39.63;23.01;99935.41;5532249;32;35136;-68
2022/06/25 14:26:18;;;;;;;1.33;0.50;;;;;;;37.98;24.94;99956.69;5532325;32;34399;-68
2022/06/25 14:29:21;;;;;;;1.20;0.43;;;;;;;36.44;26.93;99953.00;5532292;32;33898;-69
2022/06/25 14:32:23;;;;;;;2.75;0.50;;;;;;;35.18;29.21;99967.88;5532015;32;33976;-68
2022/06/25 14:35:27;;;;;;;2.92;0.50;;;;;;;36.06;27.76;99964.47;5532333;32;34894;-68
2022/06/25 14:45:14;;;;;;;0.68;0.40;;;;;;;38.70;24.20;99989.19;5532414;32;34223;-68
2022/06/25 14:48:17;;;;;;;1.60;0.50;;;;;;;41.49;21.21;99983.44;5532250;32;33952;-69
2022/06/25 14:51:19;;;;;;;0.57;0.45;;;;;;;39.03;23.91;99977.56;5531564;32;34652;-68